Terminal Aerodrome Forecast
Issued by NWS

Home | Current Version | Previous Version | Text Only | Print | Product List | Glossary On
Versions: 1 2 3 4 5 6 7 8 9 10 11 12 13 14 15 16 17 18 19 20 21 22 23 24 25 26
000
FTUS46 KLOX 181700
TAFSBP
TAF
KSBP 181737Z 1818/1918 VRB05KT P6SM SCT021 OVC035
      TEMPO 1818/1820 BKN023
     FM182100 29006KT P6SM BKN050
     FM190200 VRB03KT P6SM SCT035 BKN050
     FM191000 VRB03KT 1/2SM FG OVC002
     FM191700 VRB03KT 3SM BR BKN005=

USA.gov is the U.S. government's official web portal to all federal, state and local government web resources and services.